Potter Valley, CA (95469)

11:32 PM PST on March 05, 2015 (GMT -0800)
APRSWXNET Potter Valley CA US | Change Station
CLOSE
Current Station
Personal Weather Station
Location: Potter Valley, CA
Elevation: 974 ft
Nearby Weather Stations
Active Advisory: Frost Advisory

Elev 974 ft 39.34 °N, 123.11 °W | Updated 27 minutes ago

Clear
Clear
40 °F
Feels Like 40 °F
N
1
Wind Variable Wind from West
Gusts 1.0 mph

Today
High -- | Low -- °F
--% Chance of Precip.
Yesterday
High -- | Low -- °F
Precip. -- in
6:39 AM 6:08 PM
Full, 100% visible
Pressure 30.33 in
Visibility 10.0 miles
Clouds Clear
Windchill 40 °F
Dew Point 37 °F
Humidity 89%
Rainfall in
Snow Depth Not available.
UV 0 out of 12
Pollen 7.20 out of 12
Air Quality Not available.
Flu Activity Not available.
METAR KUKI 060656Z AUTO 00000KT 10SM CLR 08/03 A3034 RMK AO2 SLP271 T00830028

More Conditions Fewer Conditions

Pressure 30.33 in
Visibility 10.0 miles
Clouds Clear
Windchill 40 °F
Dew Point 37 °F
Humidity 89%
Rainfall in
Snow Depth Not available.
UV 0 out of 12
Pollen 7.20 out of 12
Air Quality Not available.
Flu Activity Not available.
METAR KUKI 060656Z AUTO 00000KT 10SM CLR 08/03 A3034 RMK AO2 SLP271 T00830028

More Conditions Fewer Conditions

10-Day Weather Forecast

Almanac

Astronomy

Mar. 05, 2015 Rise Set
Actual Time
Civil Twilight
Nautical Twilight
Astronomical Twilight
Moon
Length of Visible Light
Length of Day
Tomorrow will be .
, % of the Moon is Illuminated

Today's Extremes

State Highs State Lows

Community

WunderPhotos

Upload Photos

1,803,199 photos uploaded!

WunderBlogs® & News

Nearby

Air Quality

  Air Quality AQ Index Pollutant
Not available.

Snow Depth

Station Depth Elevation

Earthquake Activity

City Distance Mag. Time & Date
Minimum magnitude displayed is 2.5.

Coastal Water Temperatures

Place Temperature

Nearby Weather Stations

Frost Advisory
Statement as of 3:07 PM PST on March 05, 2015

... Frost advisory in effect from 2 am to 8 am PST Friday...

The National Weather Service in Eureka has issued a frost
advisory... which is in effect from 2 am to 8 am PST Friday.

* Low temperatures... mid 30s.

* Locations include... Willits... Covelo valley... Potter Valley...
Ukiah valley... Hopland... and Laytonville.

* For a detailed view of the hazard area... visit
http://www.Weather.Gov/Eureka/hazards

Precautionary/preparedness actions...

A frost advisory means that frost is possible. Sensitive outdoor
plants may be killed if left uncovered.